Time;durP1;ratioP1;P1;durP2;ratioP2;P2;SDS_P1;SDS_P2;PMS_P1;PMS_P2;Temp;Humidity;BMP_temperature;BMP_pressure;BME280_temperature;BME280_humidity;BME280_pressure;Samples;Min_cycle;Max_cycle;Signal;HPM_P1;HPM_P2
2024/02/19 00:01:46;;;;;;;;;;;9.40;75.30;;;;;;5073891;28;19912;-80
2024/02/19 00:07:11;;;;;;;;;;;9.40;75.30;;;;;;5073195;28;19924;-80
2024/02/19 00:13:15;;;;;;;;;;;9.30;73.80;;;;;;5074652;28;19955;-80
2024/02/19 00:19:15;;;;;;;;;;;9.30;75.30;;;;;;5077299;28;20390;-79
2024/02/19 00:22:15;;;;;;;;;;;9.40;69.70;;;;;;5077407;28;19912;-79
2024/02/19 00:27:44;;;;;;;;;;;9.30;62.30;;;;;;5076639;28;20027;-79
2024/02/19 00:30:16;;;;;;;;;;;10.30;68.40;;;;;;5077489;28;19909;-79
2024/02/19 00:33:16;;;;;;;;;;;9.30;68.00;;;;;;5077008;28;20338;-79
2024/02/19 00:36:15;;;;;;;;;;;9.30;65.20;;;;;;5077310;28;19932;-78
2024/02/19 00:39:15;;;;;;;;;;;9.30;66.80;;;;;;5074850;28;19960;-79
2024/02/19 00:41:45;;;;;;;;;;;9.10;68.20;;;;;;5065865;28;19912;-79
2024/02/19 00:44:15;;;;;;;;;;;9.10;73.90;;;;;;5058674;28;20007;-80
2024/02/19 00:50:15;;;;;;;;;;;9.10;67.00;;;;;;5076960;28;19997;-76
2024/02/19 00:52:46;;;;;;;;;;;9.10;71.30;;;;;;5083072;28;19913;-77
2024/02/19 00:55:20;;;;;;;;;;;9.20;73.20;;;;;;5076903;28;19909;-78
2024/02/19 00:57:45;;;;;;;;;;;9.20;70.60;;;;;;5064157;28;20371;-77
2024/02/19 01:00:11;;;;;;;;;;;9.20;65.70;;;;;;5076744;28;19954;-78
2024/02/19 01:02:37;;;;;;;;;;;9.20;68.60;;;;;;5087635;28;19912;-78
2024/02/19 01:05:02;;;;;;;;;;;9.10;64.60;;;;;;5074590;28;19920;-78
2024/02/19 01:07:45;;;;;;;;;;;9.10;68.10;;;;;;5076256;28;19951;-78
2024/02/19 01:10:46;;;;;;;;;;;9.20;68.70;;;;;;5073708;28;19920;-78
2024/02/19 01:13:16;;;;;;;;;;;9.20;68.70;;;;;;5073484;28;20421;-78
2024/02/19 01:15:45;;;;;;;;;;;9.20;69.80;;;;;;5076890;28;19908;-78
2024/02/19 01:18:16;;;;;;;;;;;9.20;69.50;;;;;;5076373;28;19934;-78
2024/02/19 01:20:46;;;;;;;;;;;9.20;72.10;;;;;;5076820;28;20290;-78
2024/02/19 01:23:16;;;;;;;;;;;9.20;65.70;;;;;;5082747;28;19922;-78
2024/02/19 01:26:16;;;;;;;;;;;9.20;67.70;;;;;;5076332;28;19908;-78
2024/02/19 01:29:15;;;;;;;;;;;9.20;63.90;;;;;;5085102;28;19912;-77
2024/02/19 01:31:45;;;;;;;;;;;9.20;67.30;;;;;;5076297;28;19909;-77
2024/02/19 01:34:16;;;;;;;;;;;9.30;63.50;;;;;;5075024;28;20003;-77
2024/02/19 01:37:15;;;;;;;;;;;9.30;65.90;;;;;;5065127;28;19919;-77
2024/02/19 01:40:15;;;;;;;;;;;9.40;64.20;;;;;;5073669;28;20011;-77
2024/02/19 01:43:00;;;;;;;;;;;9.30;65.70;;;;;;5075657;28;19995;-77
2024/02/19 01:45:26;;;;;;;;;;;9.40;64.00;;;;;;5070235;28;20364;-79
2024/02/19 01:48:15;;;;;;;;;;;9.40;62.40;;;;;;5075884;28;20003;-79
2024/02/19 01:50:46;;;;;;;;;;;9.40;59.80;;;;;;5075828;28;20059;-79
2024/02/19 01:53:16;;;;;;;;;;;9.40;58.10;;;;;;5075827;28;19954;-79
2024/02/19 01:56:15;;;;;;;;;;;9.40;61.80;;;;;;5075538;28;19908;-79
2024/02/19 01:59:15;;;;;;;;;;;9.50;59.80;;;;;;5075650;28;19909;-79
2024/02/19 02:01:46;;;;;;;;;;;9.50;54.20;;;;;;5076054;28;19924;-81
2024/02/19 02:04:17;;;;;;;;;;;9.70;46.00;;;;;;5067570;28;19908;-79
2024/02/19 02:06:46;;;;;;;;;;;9.70;42.70;;;;;;5075471;28;19912;-79
2024/02/19 02:09:16;;;;;;;;;;;9.60;42.60;;;;;;5075322;28;19922;-79
2024/02/19 02:12:15;;;;;;;;;;;9.60;42.50;;;;;;5087773;28;19912;-80
2024/02/19 02:15:15;;;;;;;;;;;9.70;42.60;;;;;;5080404;28;20015;-80
2024/02/19 02:17:45;;;;;;;;;;;9.70;39.40;;;;;;5079274;28;19915;-80
2024/02/19 02:20:17;;;;;;;;;;;9.70;42.70;;;;;;5075104;28;19912;-79
2024/02/19 02:22:47;;;;;;;;;;;9.70;42.60;;;;;;5075073;28;20252;-79
2024/02/19 02:25:16;;;;;;;;;;;9.70;39.40;;;;;;5079975;28;19909;-79
2024/02/19 02:27:41;;;;;;;;;;;9.70;42.60;;;;;;5074155;28;19935;-79
2024/02/19 02:33:16;;;;;;;;;;;9.70;39.40;;;;;;5078050;28;19996;-79
2024/02/19 02:35:46;;;;;;;;;;;9.80;39.50;;;;;;5095117;28;20017;-79
2024/02/19 02:38:15;;;;;;;;;;;9.80;39.50;;;;;;5094759;28;19915;-79
2024/02/19 02:43:46;;;;;;;;;;;9.80;42.80;;;;;;5074574;28;20328;-79
2024/02/19 02:46:33;;;;;;;;;;;9.90;32.50;;;;;;5074915;28;19916;-77
2024/02/19 02:49:15;;;;;;;;;;;9.90;33.30;;;;;;5074575;28;19913;-77
2024/02/19 02:51:46;;;;;;;;;;;9.90;31.30;;;;;;5086171;28;19988;-77
2024/02/19 02:54:15;;;;;;;;;;;9.90;28.90;;;;;;5075535;28;19912;-77
2024/02/19 02:56:47;;;;;;;;;;;10.00;23.70;;;;;;5062371;28;19958;-77
2024/02/19 02:59:12;;;;;;;;;;;10.10;20.60;;;;;;5060652;28;19909;-78
2024/02/19 03:02:15;;;;;;;;;;;10.10;17.20;;;;;;5061895;28;20007;-79
2024/02/19 03:04:51;;;;;;;;;;;10.10;16.40;;;;;;5057869;28;19913;-79
2024/02/19 03:07:33;;;;;;;;;;;10.10;15.10;;;;;;5074182;28;19908;-79
2024/02/19 03:13:02;;;;;;;;;;;10.20;6.10;;;;;;5068800;28;19970;-79
2024/02/19 03:21:26;;;;;;;;;;;10.30;1.00;;;;;;5088943;28;20022;-79
2024/02/19 03:27:04;;;;;;;;;;;10.40;1.00;;;;;;5081980;28;19923;-79
2024/02/19 03:33:03;;;;;;;;;;;10.40;1.00;;;;;;5073771;28;19919;-78
2024/02/19 03:35:45;;;;;;;;;;;10.40;1.00;;;;;;5083342;28;19920;-77
2024/02/19 03:38:22;;;;;;;;;;;10.40;1.00;;;;;;5073685;28;20012;-78
2024/02/19 03:40:48;;;;;;;;;;;10.40;1.00;;;;;;5073669;28;19912;-79
2024/02/19 03:46:20;;;;;;;;;;;10.40;1.00;;;;;;5083454;28;19920;-79
2024/02/19 03:48:45;;;;;;;;;;;10.40;1.00;;;;;;5062640;28;19908;-78
2024/02/19 03:51:28;;;;;;;;;;;10.30;1.00;;;;;;5080760;28;19916;-77
2024/02/19 03:53:57;;;;;;;;;;;10.30;1.00;;;;;;5092519;28;19919;-77
2024/02/19 03:56:34;;;;;;;;;;;10.40;1.00;;;;;;5080753;28;19908;-76
2024/02/19 04:02:02;;;;;;;;;;;10.40;1.00;;;;;;5078275;28;20303;-77
2024/02/19 04:04:46;;;;;;;;;;;10.30;1.00;;;;;;5060514;28;19909;-77
2024/02/19 04:07:28;;;;;;;;;;;10.30;1.00;;;;;;5061655;28;19916;-77
2024/02/19 04:10:10;;;;;;;;;;;10.20;1.00;;;;;;5075246;28;19924;-76
2024/02/19 04:12:39;;;;;;;;;;;10.30;1.00;;;;;;5080866;28;20321;-77
2024/02/19 04:15:28;;;;;;;;;;;10.30;1.00;;;;;;5080764;28;19916;-77
2024/02/19 04:20:56;;;;;;;;;;;10.30;1.00;;;;;;5080071;28;19962;-77
2024/02/19 04:26:51;;;;;;;;;;;10.30;1.00;;;;;;5076751;28;19935;-77
2024/02/19 04:32:45;;;;;;;;;;;10.20;1.00;;;;;;5067569;28;20394;-77
2024/02/19 04:35:33;;;;;;;;;;;10.30;1.00;;;;;;5080204;28;20033;-77
2024/02/19 04:41:33;;;;;;;;;;;10.20;1.00;;;;;;5080006;28;19920;-77
2024/02/19 04:44:22;;;;;;;;;;;10.10;1.00;;;;;;5080450;28;19916;-77
2024/02/19 04:46:58;;;;;;;;;;;10.10;1.00;;;;;;5080032;28;19909;-78
2024/02/19 04:49:40;;;;;;;;;;;10.20;1.00;;;;;;5079996;28;19997;-78
2024/02/19 04:52:05;;;;;;;;;;;10.20;1.00;;;;;;5080044;28;19938;-76
2024/02/19 04:54:34;;;;;;;;;;;10.30;1.00;;;;;;5072593;28;19962;-76
2024/02/19 04:57:04;;;;;;;;;;;10.30;1.00;;;;;;5058584;28;19909;-75
2024/02/19 04:59:46;;;;;;;;;;;10.20;1.00;;;;;;5077165;28;19919;-77
2024/02/19 05:07:58;;;;;;;;;;;10.20;1.00;;;;;;5076810;28;19920;-79
2024/02/19 05:10:40;;;;;;;;;;;10.20;1.00;;;;;;5076725;28;19908;-79
2024/02/19 05:13:27;;;;;;;;;;;10.10;1.00;;;;;;5065036;28;19916;-80
2024/02/19 05:18:56;;;;;;;;;;;10.10;1.00;;;;;;5076732;28;19978;-79
2024/02/19 05:21:47;;;;;;;;;;;10.00;1.00;;;;;;5075230;28;19916;-79
2024/02/19 05:24:15;;;;;;;;;;;10.00;1.00;;;;;;5064865;28;19913;-80
2024/02/19 05:26:46;;;;;;;;;;;10.00;1.00;;;;;;5076946;28;19920;-79
2024/02/19 05:29:46;;;;;;;;;;;9.90;1.00;;;;;;5075899;28;19912;-81
2024/02/19 05:32:16;;;;;;;;;;;9.90;1.00;;;;;;5085599;28;19913;-79
2024/02/19 05:34:46;;;;;;;;;;;9.90;1.00;;;;;;5072174;28;20000;-80
2024/02/19 05:37:16;;;;;;;;;;;9.90;1.00;;;;;;5075025;28;19919;-78
2024/02/19 05:40:16;;;;;;;;;;;9.90;1.00;;;;;;5075794;28;19917;-79
2024/02/19 05:42:49;;;;;;;;;;;9.90;1.00;;;;;;5075660;28;20256;-79
2024/02/19 05:45:16;;;;;;;;;;;9.90;1.00;;;;;;5076097;28;19952;-79
2024/02/19 05:47:47;;;;;;;;;;;9.90;1.00;;;;;;5075754;28;19908;-79
2024/02/19 05:50:16;;;;;;;;;;;9.80;1.00;;;;;;5058208;28;19909;-81
2024/02/19 05:52:46;;;;;;;;;;;9.80;1.00;;;;;;5052809;28;19920;-81
2024/02/19 05:55:46;;;;;;;;;;;9.70;1.00;;;;;;5077910;28;19933;-81
2024/02/19 05:58:47;;;;;;;;;;;9.60;1.00;;;;;;5077180;28;19955;-83
2024/02/19 06:01:40;;;;;;;;;;;9.60;1.00;;;;;;5079930;28;19920;-83
2024/02/19 06:04:17;;;;;;;;;;;9.50;1.00;;;;;;5073624;28;19912;-80
2024/02/19 06:06:46;;;;;;;;;;;9.60;1.00;;;;;;5076222;28;19919;-88
2024/02/19 06:09:17;;;;;;;;;;;9.60;1.00;;;;;;5056157;28;20086;-81
2024/02/19 06:11:46;;;;;;;;;;;9.60;1.00;;;;;;5073171;28;19919;-82
2024/02/19 06:14:46;;;;;;;;;;;9.70;1.00;;;;;;5086702;28;19912;-85
2024/02/19 06:17:46;;;;;;;;;;;9.60;1.00;;;;;;5072127;28;19912;-82
2024/02/19 06:20:12;;;;;;;;;;;9.70;1.00;;;;;;5079473;28;19997;-82
2024/02/19 06:22:46;;;;;;;;;;;9.70;1.00;;;;;;5063565;28;19913;-81
2024/02/19 06:25:16;;;;;;;;;;;9.70;1.00;;;;;;5072248;28;19915;-80
2024/02/19 06:28:16;;;;;;;;;;;9.70;1.00;;;;;;5077689;28;19919;-79
2024/02/19 06:31:16;;;;;;;;;;;9.70;1.00;;;;;;5043288;28;19999;-80
2024/02/19 06:34:16;;;;;;;;;;;9.80;1.00;;;;;;5064606;28;19912;-84
2024/02/19 06:36:42;;;;;;;;;;;9.80;1.00;;;;;;5068617;28;19952;-81
2024/02/19 06:39:10;;;;;;;;;;;9.60;1.00;;;;;;5072699;28;20414;-82
2024/02/19 06:41:46;;;;;;;;;;;9.60;1.00;;;;;;5071176;28;19959;-82
2024/02/19 06:44:12;;;;;;;;;;;9.70;1.00;;;;;;5052990;28;20351;-81
2024/02/19 06:46:40;;;;;;;;;;;9.70;1.00;;;;;;5055686;28;19927;-79
2024/02/19 06:52:18;;;;;;;;;;;9.60;1.00;;;;;;5070021;28;20016;-79
2024/02/19 06:54:46;;;;;;;;;;;9.60;1.00;;;;;;5063039;28;19916;-79
2024/02/19 06:57:16;;;;;;;;;;;9.60;1.00;;;;;;5074230;28;19927;-79
2024/02/19 06:59:48;;;;;;;;;;;9.70;1.00;;;;;;5071010;28;19923;-79
2024/02/19 07:02:16;;;;;;;;;;;9.70;1.00;;;;;;5066488;28;19913;-78
2024/02/19 07:04:41;;;;;;;;;;;9.60;1.00;;;;;;5089558;28;20007;-80
2024/02/19 07:07:10;;;;;;;;;;;9.60;1.00;;;;;;5093949;28;20011;-78
2024/02/19 07:09:36;;;;;;;;;;;9.60;1.00;;;;;;5077162;28;19917;-78
2024/02/19 07:12:16;;;;;;;;;;;9.70;1.00;;;;;;5066833;28;19935;-78
2024/02/19 07:14:46;;;;;;;;;;;9.80;1.00;;;;;;5073854;28;20364;-81
2024/02/19 07:17:46;;;;;;;;;;;9.80;1.00;;;;;;5084375;28;19915;-77
2024/02/19 07:20:46;;;;;;;;;;;9.80;1.00;;;;;;5079435;28;19913;-78
2024/02/19 07:23:16;;;;;;;;;;;9.70;1.00;;;;;;5069424;28;19950;-79
2024/02/19 07:25:46;;;;;;;;;;;9.80;1.00;;;;;;5059367;28;20475;-79
2024/02/19 07:28:16;;;;;;;;;;;9.90;1.00;;;;;;5062069;28;19913;-79
2024/02/19 07:30:46;;;;;;;;;;;9.70;1.00;;;;;;5067265;28;19913;-79
2024/02/19 07:33:46;;;;;;;;;;;9.70;1.00;;;;;;5064788;28;20000;-80
2024/02/19 07:36:16;;;;;;;;;;;9.70;1.00;;;;;;5077233;28;19919;-79
2024/02/19 07:38:46;;;;;;;;;;;9.70;1.00;;;;;;5068592;28;19913;-80
2024/02/19 07:41:16;;;;;;;;;;;9.70;1.00;;;;;;5062695;28;19917;-80
2024/02/19 07:43:46;;;;;;;;;;;9.70;1.00;;;;;;5068305;28;19916;-81
2024/02/19 07:46:18;;;;;;;;;;;9.70;1.00;;;;;;5070756;28;20221;-80
2024/02/19 07:48:46;;;;;;;;;;;9.60;1.00;;;;;;5093462;28;20003;-79
2024/02/19 07:51:16;;;;;;;;;;;9.70;1.00;;;;;;5074092;28;19913;-78
2024/02/19 07:53:47;;;;;;;;;;;9.70;1.00;;;;;;5073776;28;20287;-78
2024/02/19 07:56:16;;;;;;;;;;;9.60;1.00;;;;;;5073942;28;19909;-78
2024/02/19 07:58:46;;;;;;;;;;;9.60;1.00;;;;;;5073648;28;19909;-78
2024/02/19 08:01:16;;;;;;;;;;;9.70;1.00;;;;;;5073722;28;19938;-78
2024/02/19 08:03:41;;;;;;;;;;;9.80;1.00;;;;;;5070619;28;19962;-78
2024/02/19 08:06:08;;;;;;;;;;;9.60;1.00;;;;;;5077995;28;19913;-80
2024/02/19 08:08:33;;;;;;;;;;;9.60;1.00;;;;;;5073283;28;19916;-80
2024/02/19 08:11:28;;;;;;;;;;;9.70;1.00;;;;;;5073613;28;20443;-80
2024/02/19 08:16:56;;;;;;;;;;;10.00;1.00;;;;;;5082500;28;19919;-80
2024/02/19 08:28:31;;;;;;;;;;;10.20;1.00;;;;;;5073424;28;19958;-80
2024/02/19 08:40:05;;;;;;;;;;;10.80;1.00;;;;;;5076986;28;19946;-78
2024/02/19 08:42:50;;;;;;;;;;;10.80;1.00;;;;;;5076872;28;19913;-78
2024/02/19 08:45:15;;;;;;;;;;;10.80;1.00;;;;;;5048069;28;19966;-78
2024/02/19 08:50:58;;;;;;;;;;;11.10;1.00;;;;;;5075964;28;19919;-79
2024/02/19 08:53:24;;;;;;;;;;;11.10;1.00;;;;;;5076689;28;19999;-78
2024/02/19 08:56:10;;;;;;;;;;;11.30;1.00;;;;;;5077043;28;19939;-78
2024/02/19 09:07:45;;;;;;;;;;;11.20;1.00;;;;;;5076787;28;20314;-79
2024/02/19 09:10:22;;;;;;;;;;;11.30;1.00;;;;;;5082304;28;19916;-78
2024/02/19 09:12:47;;;;;;;;;;;11.30;1.00;;;;;;5076174;28;20359;-78
2024/02/19 09:15:13;;;;;;;;;;;11.30;1.00;;;;;;5076214;28;19909;-78
2024/02/19 09:17:52;;;;;;;;;;;11.40;1.00;;;;;;5076285;28;19940;-78
2024/02/19 09:20:18;;;;;;;;;;;11.50;1.00;;;;;;5076171;28;20360;-78
2024/02/19 09:22:58;;;;;;;;;;;11.50;1.00;;;;;;5076714;28;20011;-78
2024/02/19 09:31:29;;;;;;;;;;;11.70;1.00;;;;;;5068022;28;19954;-78
2024/02/19 09:37:25;;;;;;;;;;;11.70;1.00;;;;;;5076305;28;19919;-78
2024/02/19 09:40:28;;;;;;;;;;;11.80;1.00;;;;;;5070463;28;19923;-78
2024/02/19 09:45:57;;;;;;;;;;;11.60;1.00;;;;;;5065629;28;19924;-77
2024/02/19 09:51:27;;;;;;;;;;;11.60;1.00;;;;;;5080188;28;19934;-80
2024/02/19 09:56:58;;;;;;;;;;;11.40;1.00;;;;;;5075649;28;20329;-79
2024/02/19 10:02:27;;;;;;;;;;;11.50;1.00;;;;;;5067245;28;19919;-88
2024/02/19 10:07:59;;;;;;;;;;;11.80;1.00;;;;;;5075546;28;19962;-75
2024/02/19 10:10:41;;;;;;;;;;;12.70;1.00;;;;;;5075849;28;20030;-76
2024/02/19 10:13:18;;;;;;;;;;;11.60;1.00;;;;;;5070720;28;19908;-76
2024/02/19 10:16:11;;;;;;;;;;;11.60;1.00;;;;;;5068668;28;20272;-76
2024/02/19 10:18:40;;;;;;;;;;;11.50;1.00;;;;;;5065300;28;19908;-76
2024/02/19 10:21:10;;;;;;;;;;;11.60;1.00;;;;;;5071902;28;19917;-76
2024/02/19 10:24:10;;;;;;;;;;;11.40;1.00;;;;;;5055778;28;19916;-79
2024/02/19 10:29:38;;;;;;;;;;;12.10;1.00;;;;;;5055090;28;19916;-80
2024/02/19 10:38:16;;;;;;;;;;;12.20;1.00;;;;;;5065684;28;20421;-76
2024/02/19 10:44:10;;;;;;;;;;;12.20;1.00;;;;;;5075025;28;19935;-76
2024/02/19 10:47:04;;;;;;;;;;;12.20;1.00;;;;;;5064388;28;19923;-76
2024/02/19 10:55:42;;;;;;;;;;;12.40;1.00;;;;;;5073905;28;20389;-77
2024/02/19 10:58:16;;;;;;;;;;;12.20;1.00;;;;;;5062367;28;19936;-76
2024/02/19 11:00:44;;;;;;;;;;;12.30;1.00;;;;;;5074611;28;20012;-76
2024/02/19 11:03:12;;;;;;;;;;;12.30;1.00;;;;;;5074862;28;19947;-75
2024/02/19 11:05:52;;;;;;;;;;;12.30;1.00;;;;;;5074370;28;19908;-76
2024/02/19 11:08:19;;;;;;;;;;;12.30;1.00;;;;;;5074092;28;20356;-76
2024/02/19 11:10:47;;;;;;;;;;;12.40;1.00;;;;;;5073729;28;20043;-76
2024/02/19 11:13:21;;;;;;;;;;;12.40;1.00;;;;;;5061119;28;19915;-76
2024/02/19 11:15:53;;;;;;;;;;;12.60;1.00;;;;;;5074309;28;19915;-76
2024/02/19 11:21:52;;;;;;;;;;;12.60;1.00;;;;;;5087461;28;20339;-78
2024/02/19 11:27:28;;;;;;;;;;;12.90;1.00;;;;;;5077886;28;19916;-77
2024/02/19 11:30:11;;;;;;;;;;;12.90;1.00;;;;;;5074333;28;19922;-77
2024/02/19 11:33:12;;;;;;;;;;;12.90;1.00;;;;;;5073792;28;19909;-77
2024/02/19 11:36:00;;;;;;;;;;;13.00;1.00;;;;;;5032114;28;20400;-77
2024/02/19 11:38:29;;;;;;;;;;;13.10;1.00;;;;;;5025686;28;19913;-76
2024/02/19 11:41:22;;;;;;;;;;;13.20;1.00;;;;;;5034347;28;19917;-77
2024/02/19 11:43:54;;;;;;;;;;;13.30;1.00;;;;;;5033126;28;20008;-76
2024/02/19 11:46:22;;;;;;;;;;;13.30;1.00;;;;;;5030496;28;19944;-76
2024/02/19 11:49:11;;;;;;;;;;;13.30;1.00;;;;;;5034178;28;19928;-76
2024/02/19 11:51:40;;;;;;;;;;;13.40;1.00;;;;;;5028697;28;19916;-77
2024/02/19 11:54:34;;;;;;;;;;;13.20;1.00;;;;;;5032271;28;19919;-77
2024/02/19 11:57:28;;;;;;;;;;;13.30;1.00;;;;;;5028210;28;19916;-77
2024/02/19 12:02:58;;;;;;;;;;;13.10;1.00;;;;;;5022893;28;20609;-77
2024/02/19 12:05:23;;;;;;;;;;;13.10;1.00;;;;;;5031636;28;20364;-77
2024/02/19 12:08:16;;;;;;;;;;;13.40;1.00;;;;;;5035296;28;19916;-77
2024/02/19 12:10:58;;;;;;;;;;;13.40;1.00;;;;;;5071929;28;19928;-77
2024/02/19 12:13:35;;;;;;;;;;;13.10;1.00;;;;;;5091407;28;19947;-80
2024/02/19 12:16:10;;;;;;;;;;;12.90;1.00;;;;;;5077219;28;19913;-78
2024/02/19 12:24:41;;;;;;;;;;;12.90;1.00;;;;;;5065089;28;19922;-76
2024/02/19 12:30:34;;;;;;;;;;;12.90;1.00;;;;;;5075426;28;19920;-84
2024/02/19 12:33:37;;;;;;;;;;;13.10;1.00;;;;;;5068653;28;19939;-76
2024/02/19 12:36:16;;;;;;;;;;;13.00;1.00;;;;;;5076878;28;19919;-76
2024/02/19 12:39:17;;;;;;;;;;;12.70;1.00;;;;;;5071708;28;19932;-76
2024/02/19 12:41:48;;;;;;;;;;;12.60;1.00;;;;;;5070655;28;20011;-77
2024/02/19 12:44:28;;;;;;;;;;;12.60;1.00;;;;;;5077243;28;19962;-77
2024/02/19 12:47:28;;;;;;;;;;;12.70;1.00;;;;;;5064354;28;19924;-77
2024/02/19 12:49:58;;;;;;;;;;;12.60;1.00;;;;;;5075391;28;19915;-77
2024/02/19 12:52:28;;;;;;;;;;;12.60;1.00;;;;;;5076390;28;19950;-78
2024/02/19 12:55:05;;;;;;;;;;;12.50;1.00;;;;;;5085578;28;19912;-77
2024/02/19 13:00:42;;;;;;;;;;;12.60;1.00;;;;;;5082927;28;19923;-79
2024/02/19 13:03:40;;;;;;;;;;;12.60;1.00;;;;;;5069273;28;20402;-78
2024/02/19 13:12:22;;;;;;;;;;;12.80;1.00;;;;;;5061287;28;20398;-84
2024/02/19 13:14:53;;;;;;;;;;;12.90;1.00;;;;;;5057936;28;19919;-77
2024/02/19 13:17:22;;;;;;;;;;;13.00;1.00;;;;;;5077905;28;20279;-77
2024/02/19 13:25:53;;;;;;;;;;;12.90;1.00;;;;;;5075507;28;19932;-77
2024/02/19 13:31:22;;;;;;;;;;;13.30;1.00;;;;;;5069569;28;19919;-77
2024/02/19 13:40:22;;;;;;;;;;;13.60;1.00;;;;;;5076916;28;19926;-75
2024/02/19 13:42:48;;;;;;;;;;;13.30;1.00;;;;;;5067208;28;19913;-75
2024/02/19 13:45:14;;;;;;;;;;;13.20;1.00;;;;;;5075154;28;20497;-76
2024/02/19 13:47:46;;;;;;;;;;;13.20;1.00;;;;;;5080065;28;19919;-75
2024/02/19 13:50:12;;;;;;;;;;;13.30;1.00;;;;;;5077785;28;20012;-76
2024/02/19 13:55:52;;;;;;;;;;;13.30;1.00;;;;;;5074102;28;20332;-75
2024/02/19 13:58:23;;;;;;;;;;;13.20;1.00;;;;;;5079392;28;19912;-75
2024/02/19 14:00:57;;;;;;;;;;;13.20;1.00;;;;;;5077854;28;19919;-75
2024/02/19 14:03:23;;;;;;;;;;;13.20;1.00;;;;;;5068140;28;20378;-75
2024/02/19 14:06:11;;;;;;;;;;;13.10;1.00;;;;;;5073707;28;19947;-76
2024/02/19 14:08:41;;;;;;;;;;;13.00;1.00;;;;;;5057928;28;19948;-76
2024/02/19 14:11:06;;;;;;;;;;;12.80;1.00;;;;;;5062021;28;19946;-76
2024/02/19 14:13:58;;;;;;;;;;;12.80;1.00;;;;;;5075757;28;19913;-76
2024/02/19 14:16:28;;;;;;;;;;;12.70;1.00;;;;;;5067426;28;19912;-76
2024/02/19 14:19:10;;;;;;;;;;;12.80;1.00;;;;;;5075557;28;19909;-75
2024/02/19 14:21:36;;;;;;;;;;;12.70;1.00;;;;;;5049889;28;19920;-74
2024/02/19 14:24:01;;;;;;;;;;;12.70;1.00;;;;;;5073557;28;19977;-76
2024/02/19 14:26:52;;;;;;;;;;;12.70;1.00;;;;;;5077107;28;19912;-76
2024/02/19 14:29:34;;;;;;;;;;;12.70;1.00;;;;;;5075024;28;19970;-76
2024/02/19 14:32:35;;;;;;;;;;;12.70;1.00;;;;;;5074176;28;19909;-76
2024/02/19 14:35:16;;;;;;;;;;;12.80;1.00;;;;;;5081152;28;19916;-76
2024/02/19 14:38:06;;;;;;;;;;;13.00;1.00;;;;;;5067229;28;20026;-76
2024/02/19 14:40:52;;;;;;;;;;;13.00;1.00;;;;;;5075092;28;19916;-76
2024/02/19 14:43:18;;;;;;;;;;;12.90;1.00;;;;;;5069438;28;19912;-75
2024/02/19 14:45:58;;;;;;;;;;;12.90;1.00;;;;;;5074424;28;20003;-76
2024/02/19 14:48:28;;;;;;;;;;;12.90;1.00;;;;;;5074497;28;19939;-74
2024/02/19 14:50:54;;;;;;;;;;;13.00;1.00;;;;;;5074842;28;19913;-75
2024/02/19 14:53:22;;;;;;;;;;;13.10;1.00;;;;;;5074837;28;19921;-75
2024/02/19 14:56:05;;;;;;;;;;;13.20;1.00;;;;;;5057506;28;19934;-75
2024/02/19 14:58:34;;;;;;;;;;;13.20;1.00;;;;;;5074302;28;19913;-74
2024/02/19 15:01:22;;;;;;;;;;;13.30;1.00;;;;;;5074535;28;19922;-75
2024/02/19 15:07:17;;;;;;;;;;;13.30;1.00;;;;;;5069666;28;19974;-75
2024/02/19 15:12:46;;;;;;;;;;;12.90;1.00;;;;;;5073548;28;19943;-74
2024/02/19 15:15:11;;;;;;;;;;;12.70;1.00;;;;;;5065173;28;19916;-80
2024/02/19 15:21:10;;;;;;;;;;;12.60;1.00;;;;;;5072262;28;20254;-78
2024/02/19 15:26:39;;;;;;;;;;;12.40;1.00;;;;;;5072746;28;19915;-79
2024/02/19 15:29:04;;;;;;;;;;;12.40;1.00;;;;;;5071540;28;19995;-79
2024/02/19 15:31:34;;;;;;;;;;;12.40;1.00;;;;;;5062770;28;19915;-78
2024/02/19 15:34:10;;;;;;;;;;;12.30;1.00;;;;;;5076344;28;19966;-76
2024/02/19 15:36:36;;;;;;;;;;;12.40;1.00;;;;;;5073713;28;19912;-79
2024/02/19 15:39:02;;;;;;;;;;;12.20;1.00;;;;;;5072856;28;20006;-78
2024/02/19 15:44:53;;;;;;;;;;;12.00;1.00;;;;;;5063119;28;19940;-79
2024/02/19 15:50:46;;;;;;;;;;;11.80;1.00;;;;;;5083441;28;19996;-79
2024/02/19 15:53:37;;;;;;;;;;;11.70;1.00;;;;;;5075529;28;20446;-79
2024/02/19 16:02:10;;;;;;;;;;;11.90;1.00;;;;;;5060221;28;19966;-81
2024/02/19 16:07:38;;;;;;;;;;;12.00;1.00;;;;;;5066568;28;19962;-80
2024/02/19 16:13:07;;;;;;;;;;;11.90;1.00;;;;;;5073334;28;19936;-78
2024/02/19 16:15:35;;;;;;;;;;;11.90;1.00;;;;;;5072992;28;19912;-78
2024/02/19 16:21:22;;;;;;;;;;;11.80;1.00;;;;;;5073391;28;20403;-78
2024/02/19 16:26:58;;;;;;;;;;;11.70;1.00;;;;;;5063967;28;19919;-81
2024/02/19 16:35:30;;;;;;;;;;;11.40;1.00;;;;;;5080092;28;20367;-81
2024/02/19 16:41:00;;;;;;;;;;;11.40;1.00;;;;;;5072456;28;20489;-78
2024/02/19 16:46:34;;;;;;;;;;;11.10;1.00;;;;;;5080820;28;19919;-78
2024/02/19 16:49:04;;;;;;;;;;;11.10;1.00;;;;;;5075066;28;19913;-78
2024/02/19 16:51:42;;;;;;;;;;;11.00;1.00;;;;;;5063220;28;19966;-78
2024/02/19 16:54:08;;;;;;;;;;;10.90;1.00;;;;;;5075636;28;20328;-78
2024/02/19 16:56:40;;;;;;;;;;;10.80;1.00;;;;;;5076629;28;19962;-78
2024/02/19 16:59:06;;;;;;;;;;;10.80;1.00;;;;;;5069482;28;19917;-78
2024/02/19 17:01:31;;;;;;;;;;;10.80;1.00;;;;;;5076675;28;19912;-79
2024/02/19 17:04:10;;;;;;;;;;;10.80;1.00;;;;;;5076836;28;19954;-79
2024/02/19 17:07:10;;;;;;;;;;;10.80;1.00;;;;;;5080394;28;19912;-78
2024/02/19 17:12:39;;;;;;;;;;;10.70;1.00;;;;;;5076839;28;19923;-78
2024/02/19 17:21:10;;;;;;;;;;;10.60;1.00;;;;;;5077222;28;19986;-79
2024/02/19 17:23:52;;;;;;;;;;;10.60;1.00;;;;;;5082802;28;20375;-79
2024/02/19 17:26:36;;;;;;;;;;;10.50;1.00;;;;;;5072060;28;19920;-80
2024/02/19 17:32:05;;;;;;;;;;;10.30;1.00;;;;;;5073346;28;20421;-81
2024/02/19 17:37:52;;;;;;;;;;;10.30;8.80;;;;;;5076825;28;20421;-80
2024/02/19 17:40:22;;;;;;;;;;;10.30;11.10;;;;;;5082566;28;19929;-80
2024/02/19 17:42:49;;;;;;;;;;;10.30;12.10;;;;;;5076135;28;19958;-81
2024/02/19 17:45:15;;;;;;;;;;;10.20;11.50;;;;;;5075035;28;19921;-85
2024/02/19 17:50:46;;;;;;;;;;;10.20;16.70;;;;;;5076392;28;20003;-85
2024/02/19 18:05:41;;;;;;;;;;;10.30;15.50;;;;;;5055097;28;19916;-81
2024/02/19 18:14:12;;;;;;;;;;;10.30;14.80;;;;;;5074875;28;19927;-80
2024/02/19 18:20:06;;;;;;;;;;;10.20;20.70;;;;;;5075066;28;19915;-81
2024/02/19 18:34:46;;;;;;;;;;;10.20;42.20;;;;;;5064450;28;19966;-83
2024/02/19 18:40:14;;;;;;;;;;;10.20;42.10;;;;;;5069430;28;19962;-83
2024/02/19 18:42:50;;;;;;;;;;;10.30;41.80;;;;;;5074395;28;19908;-83
2024/02/19 18:45:15;;;;;;;;;;;10.20;42.10;;;;;;5054285;28;19917;-84
2024/02/19 18:51:05;;;;;;;;;;;10.40;39.00;;;;;;5072509;28;19918;-82
2024/02/19 18:56:34;;;;;;;;;;;10.30;38.10;;;;;;5075111;28;19916;-82
2024/02/19 19:11:11;;;;;;;;;;;10.10;32.10;;;;;;5075079;28;19924;-85
2024/02/19 19:16:40;;;;;;;;;;;10.00;40.90;;;;;;5073173;28;19923;-80
2024/02/19 19:22:10;;;;;;;;;;;10.00;27.90;;;;;;5075091;28;19963;-78
2024/02/19 19:24:52;;;;;;;;;;;9.80;24.50;;;;;;5087338;28;20383;-79
2024/02/19 19:27:52;;;;;;;;;;;9.90;27.90;;;;;;5061652;28;19964;-79
2024/02/19 19:33:20;;;;;;;;;;;9.80;34.50;;;;;;5074086;28;19966;-80
2024/02/19 19:36:16;;;;;;;;;;;10.50;42.00;;;;;;5073800;28;19913;-79
2024/02/19 19:47:51;;;;;;;;;;;9.80;39.50;;;;;;5065218;28;19940;-78
2024/02/19 19:50:35;;;;;;;;;;;9.80;42.60;;;;;;5073766;28;20364;-78
2024/02/19 19:53:01;;;;;;;;;;;9.70;39.40;;;;;;5073841;28;19908;-82
2024/02/19 19:55:34;;;;;;;;;;;9.70;42.70;;;;;;5074686;28;20715;-76
2024/02/19 19:58:01;;;;;;;;;;;9.80;39.50;;;;;;5078705;28;19912;-77
2024/02/19 20:00:28;;;;;;;;;;;9.80;42.60;;;;;;5072021;28;19917;-77
2024/02/19 20:06:04;;;;;;;;;;;9.90;19.00;;;;;;5077164;28;19923;-76
2024/02/19 20:08:34;;;;;;;;;;;9.90;17.70;;;;;;5086396;28;19909;-78
2024/02/19 20:11:22;;;;;;;;;;;10.00;12.70;;;;;;5073495;28;19965;-77
2024/02/19 20:16:51;;;;;;;;;;;10.00;5.00;;;;;;5080482;28;19985;-78
2024/02/19 20:25:22;;;;;;;;;;;9.90;1.00;;;;;;5072532;28;20382;-79
2024/02/19 20:28:04;;;;;;;;;;;9.90;1.00;;;;;;5074156;28;19908;-76
2024/02/19 20:30:37;;;;;;;;;;;9.90;1.00;;;;;;5076225;28;19912;-76
2024/02/19 20:33:28;;;;;;;;;;;10.00;1.00;;;;;;5075438;28;20279;-75
2024/02/19 20:35:56;;;;;;;;;;;10.00;1.00;;;;;;5076141;28;19914;-76
2024/02/19 20:38:22;;;;;;;;;;;10.10;1.00;;;;;;5047339;28;20332;-76
2024/02/19 20:40:52;;;;;;;;;;;10.00;1.00;;;;;;5089636;28;19964;-76
2024/02/19 20:58:33;;;;;;;;;;;9.90;1.00;;;;;;5075064;28;19919;-76
2024/02/19 21:01:17;;;;;;;;;;;9.80;1.00;;;;;;5075777;28;20251;-76
2024/02/19 21:09:56;;;;;;;;;;;9.80;1.00;;;;;;5075458;28;20371;-76
2024/02/19 21:12:22;;;;;;;;;;;9.80;1.00;;;;;;5075888;28;19958;-76
2024/02/19 21:17:51;;;;;;;;;;;9.80;1.00;;;;;;5020537;28;1808381;-79
2024/02/19 21:20:17;;;;;;;;;;;9.80;1.00;;;;;;5084663;28;19920;-79
2024/02/19 21:22:50;;;;;;;;;;;9.70;1.00;;;;;;5083423;28;19912;-79
2024/02/19 21:40:30;;;;;;;;;;;9.60;1.00;;;;;;5070872;28;20410;-78
2024/02/19 21:43:10;;;;;;;;;;;9.60;1.00;;;;;;5075918;28;19917;-79
2024/02/19 21:45:54;;;;;;;;;;;9.60;1.00;;;;;;5076278;28;19921;-76